Arklow Rogue — EIGD — position and weather

sailwx.info

Track history (hours):
 
Tides and Currents Weather Stations Pressure Air Temp Water Temp Dewpoint Dewpoint Depression Visibility Wind Speed Wind Dir Waves Ship Positions

Arklow Rogue

Last reported at 2014-Jul-31 10:33 UTC. Time now 2014-Jul-31 11:31 UTC.
Position N 51°54' W 008°25'.

Length 90 m; draft 3.4 m.

Type: Cargo ship. MMSI: 250000960.

Date/timePositionNaut miles runAvg speedWind from/ knotsBaromVisibWave heightAir tempDewpointWater temp
2014-Jul-31 10:33N 51°54' W 008°25'0 0.0
2014-Jul-31 09:33N 51°54' W 008°25'0 0.0
2014-Jul-31 08:33N 51°54' W 008°25'0 0.0
2014-Jul-31 07:33N 51°54' W 008°25'0 0.0
2014-Jul-31 06:33N 51°54' W 008°25'0 0.0
2014-Jul-31 05:33N 51°54' W 008°25'0 0.0
2014-Jul-31 04:33N 51°54' W 008°25'0 0.0
2014-Jul-31 03:33N 51°54' W 008°25'0 0.0
2014-Jul-31 02:33N 51°54' W 008°25'0 0.0
2014-Jul-31 01:33N 51°54' W 008°25'0 0.0
2014-Jul-31 00:33N 51°54' W 008°25'0 0.0
2014-Jul-30 23:33N 51°54' W 008°25'0 0.0
2014-Jul-30 22:33N 51°54' W 008°25'0 0.0
2014-Jul-30 21:33N 51°54' W 008°25'0 0.0
2014-Jul-30 20:33N 51°54' W 008°25'4 4.5
2014-Jul-30 19:33N 51°51' W 008°20'9 9.0
2014-Jul-30 18:33N 51°46' W 008°08'1211.8
2014-Jul-30 17:33N 51°44' W 007°49'1211.8
2014-Jul-30 16:33N 51°42' W 007°30'  
2014-Jul-28 00:33N 53°36' W 005°58'1211.6
2014-Jul-27 23:31N 53°43' W 006°15'1 0.0
2014-Jul-26 10:33N 53°44' W 006°15'1212.0
2014-Jul-26 09:33N 53°43' W 005°55'5112.7
2014-Jul-26 05:33N 53°37' W 004°30'1313.3
2014-Jul-26 04:34N 53°36' W 004°08'41 2.0
2014-Jul-25 08:17N 53°27' W 003°01'0 0.0
2014-Jul-25 07:23N 53°27' W 003°01'0 0.0
2014-Jul-25 06:23N 53°27' W 003°01'20 2.1
2014-Jul-24 20:33N 53°31' W 003°35'1313.1
2014-Jul-24 19:34N 53°30' W 003°56'8710.9
2014-Jul-24 11:34N 52°34' W 005°48'1010.0
2014-Jul-24 10:34N 52°26' W 005°58'1110.9
2014-Jul-24 09:34N 52°18' W 006°09'1111.5
2014-Jul-24 08:34N 52°09' W 006°20'1212.3
2014-Jul-24 07:34N 52°02' W 006°37'1212.0
2014-Jul-24 06:33N 51°57' W 006°55'1111.5
2014-Jul-24 05:34N 51°53' W 007°12'1211.5
2014-Jul-24 04:34N 51°49' W 007°30'1111.5
2014-Jul-24 03:34N 51°45' W 007°47'1211.5
2014-Jul-24 02:34N 51°40' W 008°04'1211.8
2014-Jul-24 01:34N 51°36' W 008°22'1211.9
2014-Jul-24 00:34N 51°32' W 008°40'1212.1
2014-Jul-23 23:34N 51°28' W 008°58'1211.9
2014-Jul-23 22:34N 51°26' W 009°17'1111.4
2014-Jul-23 21:34N 51°25' W 009°35'1111.3
2014-Jul-23 20:34N 51°26' W 009°53'1111.3
2014-Jul-23 19:33N 51°31' W 010°10'2611.0
2014-Jul-23 17:13N 51°53' W 010°30'811.7
2014-Jul-23 16:30N 52°01' W 010°32'1010.6
2014-Jul-23 15:32N 52°12' W 010°30'1111.4
2014-Jul-23 14:33N 52°19' W 010°17'1111.1
2014-Jul-23 13:33N 52°25' W 010°02'  
Track history (hours):
 
Tides and Currents Weather Stations Pressure Air Temp Water Temp Dewpoint Dewpoint Depression Visibility Wind Speed Wind Dir Waves Ship Positions

Arklow Rogue

Last reported at 2014-Jul-31 10:33 UTC. Time now 2014-Jul-31 11:31 UTC.
Position N 51°54' W 008°25'.

Length 90 m; draft 3.4 m.

Type: Cargo ship. MMSI: 250000960.

Date/timePositionNaut miles runAvg speedWind from/ knotsBaromVisibWave heightAir tempDewpointWater temp
2014-Jul-31 10:33N 51°54' W 008°25'0 0.0
2014-Jul-31 09:33N 51°54' W 008°25'0 0.0
2014-Jul-31 08:33N 51°54' W 008°25'0 0.0
2014-Jul-31 07:33N 51°54' W 008°25'0 0.0
2014-Jul-31 06:33N 51°54' W 008°25'0 0.0
2014-Jul-31 05:33N 51°54' W 008°25'0 0.0
2014-Jul-31 04:33N 51°54' W 008°25'0 0.0
2014-Jul-31 03:33N 51°54' W 008°25'0 0.0
2014-Jul-31 02:33N 51°54' W 008°25'0 0.0
2014-Jul-31 01:33N 51°54' W 008°25'0 0.0
2014-Jul-31 00:33N 51°54' W 008°25'0 0.0
2014-Jul-30 23:33N 51°54' W 008°25'0 0.0
2014-Jul-30 22:33N 51°54' W 008°25'0 0.0
2014-Jul-30 21:33N 51°54' W 008°25'0 0.0
2014-Jul-30 20:33N 51°54' W 008°25'4 4.5
2014-Jul-30 19:33N 51°51' W 008°20'9 9.0
2014-Jul-30 18:33N 51°46' W 008°08'1211.8
2014-Jul-30 17:33N 51°44' W 007°49'1211.8
2014-Jul-30 16:33N 51°42' W 007°30'  
2014-Jul-28 00:33N 53°36' W 005°58'1211.6
2014-Jul-27 23:31N 53°43' W 006°15'1 0.0
2014-Jul-26 10:33N 53°44' W 006°15'1212.0
2014-Jul-26 09:33N 53°43' W 005°55'5112.7
2014-Jul-26 05:33N 53°37' W 004°30'1313.3
2014-Jul-26 04:34N 53°36' W 004°08'41 2.0
2014-Jul-25 08:17N 53°27' W 003°01'0 0.0
2014-Jul-25 07:23N 53°27' W 003°01'0 0.0
2014-Jul-25 06:23N 53°27' W 003°01'20 2.1
2014-Jul-24 20:33N 53°31' W 003°35'1313.1
2014-Jul-24 19:34N 53°30' W 003°56'8710.9
2014-Jul-24 11:34N 52°34' W 005°48'1010.0
2014-Jul-24 10:34N 52°26' W 005°58'1110.9
2014-Jul-24 09:34N 52°18' W 006°09'1111.5
2014-Jul-24 08:34N 52°09' W 006°20'1212.3
2014-Jul-24 07:34N 52°02' W 006°37'1212.0
2014-Jul-24 06:33N 51°57' W 006°55'1111.5
2014-Jul-24 05:34N 51°53' W 007°12'1211.5
2014-Jul-24 04:34N 51°49' W 007°30'1111.5
2014-Jul-24 03:34N 51°45' W 007°47'1211.5
2014-Jul-24 02:34N 51°40' W 008°04'1211.8
2014-Jul-24 01:34N 51°36' W 008°22'1211.9
2014-Jul-24 00:34N 51°32' W 008°40'1212.1
2014-Jul-23 23:34N 51°28' W 008°58'1211.9
2014-Jul-23 22:34N 51°26' W 009°17'1111.4
2014-Jul-23 21:34N 51°25' W 009°35'1111.3
2014-Jul-23 20:34N 51°26' W 009°53'1111.3
2014-Jul-23 19:33N 51°31' W 010°10'2611.0
2014-Jul-23 17:13N 51°53' W 010°30'811.7
2014-Jul-23 16:30N 52°01' W 010°32'1010.6
2014-Jul-23 15:32N 52°12' W 010°30'1111.4
2014-Jul-23 14:33N 52°19' W 010°17'1111.1
2014-Jul-23 13:33N 52°25' W 010°02'  

Dump ship's entire track history